Time;durP1;ratioP1;P1;durP2;ratioP2;P2;SDS_P1;SDS_P2;PMS_P1;PMS_P2;Temp;Humidity;BMP_temperature;BMP_pressure;BME280_temperature;BME280_humidity;BME280_pressure;Samples;Min_cycle;Max_cycle;Signal;HPM_P1;HPM_P2
2023/09/20 00:00:36;;;;;;;11.10;3.80;;;16.50;99.90;;;;;;5079725;28;20489;-84
2023/09/20 00:03:03;;;;;;;7.82;4.00;;;16.50;99.90;;;;;;5073576;28;20083;-83
2023/09/20 00:05:29;;;;;;;13.73;4.68;;;16.50;99.90;;;;;;5090028;28;20573;-83
2023/09/20 00:07:55;;;;;;;9.07;4.70;;;16.40;99.90;;;;;;5078714;28;20081;-82
2023/09/20 00:10:22;;;;;;;8.30;4.55;;;16.40;99.90;;;;;;5079091;28;20138;-82
2023/09/20 00:12:47;;;;;;;10.07;4.43;;;16.40;99.90;;;;;;5095320;28;20038;-82
2023/09/20 00:15:13;;;;;;;7.68;4.43;;;16.30;99.90;;;;;;5081058;28;20031;-83
2023/09/20 00:17:39;;;;;;;7.82;4.32;;;16.30;99.90;;;;;;5078502;28;20032;-82
2023/09/20 00:20:12;;;;;;;9.52;4.93;;;16.30;99.90;;;;;;5078178;28;20392;-83
2023/09/20 00:22:43;;;;;;;13.45;5.07;;;16.40;99.90;;;;;;5090967;28;20044;-82
2023/09/20 00:25:10;;;;;;;10.38;4.97;;;16.30;99.90;;;;;;5076681;28;20124;-83
2023/09/20 00:27:38;;;;;;;7.97;4.53;;;16.40;99.90;;;;;;5087955;28;20104;-82
2023/09/20 00:30:09;;;;;;;10.40;4.43;;;16.30;99.90;;;;;;5081802;28;20165;-82
2023/09/20 00:32:37;;;;;;;11.40;4.93;;;16.40;99.90;;;;;;5078600;28;20449;-83
2023/09/20 00:35:08;;;;;;;12.07;5.00;;;16.40;99.90;;;;;;5077657;28;20044;-83
2023/09/20 00:37:34;;;;;;;10.27;5.13;;;16.40;99.90;;;;;;5081702;28;20649;-83
2023/09/20 00:39:59;;;;;;;10.35;4.45;;;16.40;99.90;;;;;;5081291;28;20083;-83
2023/09/20 00:42:27;;;;;;;10.68;4.45;;;16.50;99.90;;;;;;5078097;28;20122;-83
2023/09/20 00:44:53;;;;;;;10.35;4.78;;;16.50;99.90;;;;;;5062482;28;20463;-83
2023/09/20 00:47:20;;;;;;;9.98;4.63;;;16.50;99.90;;;;;;5055909;28;20126;-82
2023/09/20 00:49:46;;;;;;;10.77;4.60;;;16.50;99.90;;;;;;5053683;28;20264;-82
2023/09/20 00:52:13;;;;;;;10.35;4.03;;;16.50;99.90;;;;;;5060411;28;20128;-83
2023/09/20 00:54:41;;;;;;;8.02;4.38;;;16.50;99.90;;;;;;5056842;28;20508;-83
2023/09/20 00:57:09;;;;;;;8.80;4.43;;;16.50;99.90;;;;;;5058800;28;20047;-83
2023/09/20 00:59:38;;;;;;;9.73;4.30;;;16.50;99.90;;;;;;5056264;28;20571;-83
2023/09/20 01:02:07;;;;;;;10.55;4.03;;;16.60;99.90;;;;;;5070815;28;20444;-83
2023/09/20 01:04:34;;;;;;;9.98;4.70;;;16.60;99.90;;;;;;5074813;28;20119;-83
2023/09/20 01:07:00;;;;;;;10.73;4.68;;;16.50;99.90;;;;;;5064070;28;20093;-83
2023/09/20 01:09:26;;;;;;;10.70;4.68;;;16.50;99.90;;;;;;5071858;28;20040;-84
2023/09/20 01:11:52;;;;;;;14.38;4.80;;;16.50;99.90;;;;;;5053716;28;20597;-83
2023/09/20 01:14:19;;;;;;;7.90;4.00;;;16.50;99.90;;;;;;5074099;28;20500;-83
2023/09/20 01:16:47;;;;;;;8.65;4.22;;;16.50;99.90;;;;;;5058300;28;20307;-82
2023/09/20 01:19:13;;;;;;;12.60;4.30;;;16.50;99.90;;;;;;5054703;28;20078;-83
2023/09/20 01:21:46;;;;;;;11.65;4.45;;;16.50;99.90;;;;;;5070409;28;20328;-83
2023/09/20 01:24:13;;;;;;;11.80;4.30;;;16.50;99.90;;;;;;5069551;28;20500;-84
2023/09/20 01:26:39;;;;;;;9.07;4.05;;;16.50;99.90;;;;;;5055347;28;20085;-83
2023/09/20 01:29:05;;;;;;;8.60;4.03;;;16.50;99.90;;;;;;5071298;28;20063;-83
2023/09/20 01:31:31;;;;;;;8.15;4.03;;;16.60;99.90;;;;;;5055308;28;20350;-83
2023/09/20 01:33:57;;;;;;;10.70;4.28;;;16.60;99.90;;;;;;5059939;28;20429;-83
2023/09/20 01:36:22;;;;;;;10.25;3.55;;;16.60;99.90;;;;;;5053546;28;20063;-83
2023/09/20 01:38:48;;;;;;;9.13;3.80;;;16.60;99.90;;;;;;5054989;28;20043;-83
2023/09/20 01:41:14;;;;;;;11.25;4.78;;;16.60;99.90;;;;;;5057459;28;20051;-83
2023/09/20 01:43:43;;;;;;;8.20;3.97;;;16.60;99.90;;;;;;5059164;28;20493;-83
2023/09/20 01:46:09;;;;;;;10.57;4.13;;;16.70;99.90;;;;;;5058884;28;20098;-83
2023/09/20 01:48:36;;;;;;;10.55;4.22;;;16.70;99.90;;;;;;5054716;28;20636;-83
2023/09/20 01:51:03;;;;;;;8.75;4.13;;;16.70;99.90;;;;;;5065714;28;20044;-83
2023/09/20 01:53:29;;;;;;;10.98;3.80;;;16.70;99.90;;;;;;5072116;28;20048;-83
2023/09/20 01:55:57;;;;;;;10.85;4.13;;;16.70;99.90;;;;;;5055507;28;20077;-83
2023/09/20 01:58:23;;;;;;;10.07;3.67;;;16.70;99.90;;;;;;5056574;28;20477;-83
2023/09/20 02:00:50;;;;;;;11.05;4.05;;;16.70;99.90;;;;;;5054061;28;20100;-83
2023/09/20 02:03:18;;;;;;;8.27;3.80;;;16.70;99.90;;;;;;5072837;28;20719;-83
2023/09/20 02:05:47;;;;;;;8.55;3.47;;;16.70;99.90;;;;;;5067309;28;20485;-83
2023/09/20 02:08:13;;;;;;;7.88;3.67;;;16.70;99.90;;;;;;5054891;28;20599;-84
2023/09/20 02:10:39;;;;;;;8.50;3.47;;;16.80;99.90;;;;;;5067242;28;20042;-84
2023/09/20 02:13:06;;;;;;;6.88;3.38;;;16.80;99.90;;;;;;5075791;28;20070;-83
2023/09/20 02:15:36;;;;;;;7.25;3.47;;;16.80;99.90;;;;;;5071979;28;20093;-83
2023/09/20 02:18:06;;;;;;;8.50;3.25;;;16.80;99.90;;;;;;5055222;28;20043;-83
2023/09/20 02:20:36;;;;;;;10.70;4.10;;;16.80;99.90;;;;;;5067893;28;20123;-83
2023/09/20 02:23:04;;;;;;;8.40;3.92;;;16.80;99.90;;;;;;5054952;28;20048;-83
2023/09/20 02:25:29;;;;;;;10.10;3.63;;;16.80;99.90;;;;;;5050842;28;20107;-83
2023/09/20 02:27:57;;;;;;;8.77;4.15;;;16.80;99.90;;;;;;5070533;28;20568;-83
2023/09/20 02:30:24;;;;;;;8.65;3.63;;;16.70;99.90;;;;;;5072074;28;20036;-83
2023/09/20 02:32:54;;;;;;;10.30;3.92;;;16.80;99.90;;;;;;5070827;28;20495;-83
2023/09/20 02:35:20;;;;;;;11.70;3.83;;;16.80;99.90;;;;;;5069781;28;20043;-83
2023/09/20 02:37:48;;;;;;;9.13;3.50;;;16.80;99.90;;;;;;5071972;28;20039;-83
2023/09/20 02:40:23;;;;;;;8.27;3.50;;;16.90;99.90;;;;;;5054037;28;20154;-84
2023/09/20 02:42:53;;;;;;;10.35;4.10;;;16.80;99.90;;;;;;5053967;28;20043;-83
2023/09/20 02:45:23;;;;;;;8.75;3.60;;;16.80;99.90;;;;;;5075042;28;20066;-83
2023/09/20 02:47:49;;;;;;;7.07;3.10;;;16.80;99.90;;;;;;5076503;28;20141;-83
2023/09/20 02:50:18;;;;;;;7.75;3.33;;;16.90;99.90;;;;;;5074838;28;20074;-83
2023/09/20 02:52:46;;;;;;;8.38;3.45;;;16.90;99.90;;;;;;5077650;28;20152;-83
2023/09/20 02:55:13;;;;;;;6.43;3.20;;;16.90;99.90;;;;;;5087765;28;20043;-83
2023/09/20 02:57:43;;;;;;;9.73;3.72;;;16.80;99.90;;;;;;5089508;28;20044;-83
2023/09/20 03:00:17;;;;;;;7.28;3.33;;;16.80;99.90;;;;;;5074423;28;20048;-83
2023/09/20 03:02:51;;;;;;;8.77;4.05;;;16.80;99.90;;;;;;5083587;28;20039;-83
2023/09/20 03:05:18;;;;;;;8.30;3.73;;;16.80;99.90;;;;;;5071129;28;20074;-83
2023/09/20 03:07:45;;;;;;;7.78;3.50;;;16.90;99.90;;;;;;5090147;28;20186;-82
2023/09/20 03:10:13;;;;;;;9.07;3.25;;;16.90;99.90;;;;;;5090713;28;20055;-83
2023/09/20 03:12:46;;;;;;;9.43;3.40;;;16.90;99.90;;;;;;5094037;28;20050;-83
2023/09/20 03:15:17;;;;;;;9.75;3.72;;;16.90;99.90;;;;;;5080267;28;20036;-83
2023/09/20 03:17:44;;;;;;;7.07;3.53;;;17.00;99.90;;;;;;5076024;28;20038;-83
2023/09/20 03:20:11;;;;;;;6.03;3.58;;;16.90;99.90;;;;;;5075927;28;20265;-83
2023/09/20 03:22:38;;;;;;;6.82;3.55;;;17.00;99.90;;;;;;5089507;28;20071;-83
2023/09/20 03:25:04;;;;;;;7.50;3.70;;;17.00;99.90;;;;;;5078746;28;20082;-83
2023/09/20 03:27:30;;;;;;;7.68;3.63;;;16.90;99.90;;;;;;5081371;28;20036;-83
2023/09/20 03:29:57;;;;;;;8.95;3.58;;;16.90;99.90;;;;;;5075080;28;20088;-83
2023/09/20 03:32:23;;;;;;;6.95;3.13;;;16.90;99.90;;;;;;5077255;28;20078;-83
2023/09/20 03:34:49;;;;;;;8.52;3.35;;;16.90;99.90;;;;;;5079903;28;20075;-83
2023/09/20 03:37:18;;;;;;;8.32;3.28;;;16.90;99.90;;;;;;5079650;28;20035;-83
2023/09/20 03:39:45;;;;;;;7.18;3.20;;;16.90;99.90;;;;;;5078780;28;20071;-83
2023/09/20 03:42:11;;;;;;;8.90;3.28;;;16.90;99.90;;;;;;5094809;28;20048;-83
2023/09/20 03:44:39;;;;;;;7.72;3.50;;;16.90;99.90;;;;;;5069036;28;20056;-83
2023/09/20 03:47:05;;;;;;;10.38;3.45;;;16.90;99.90;;;;;;5073438;28;20279;-83
2023/09/20 03:49:31;;;;;;;7.18;3.28;;;16.90;99.90;;;;;;5058302;28;20648;-83
2023/09/20 03:51:59;;;;;;;7.00;4.03;;;16.90;99.90;;;;;;5074758;28;20097;-83
2023/09/20 03:54:26;;;;;;;7.60;3.10;;;16.90;99.90;;;;;;5057287;28;20040;-83
2023/09/20 03:56:52;;;;;;;9.25;3.67;;;16.90;99.90;;;;;;5056410;28;20075;-83
2023/09/20 03:59:18;;;;;;;7.88;3.67;;;16.90;99.90;;;;;;5072169;28;20376;-83
2023/09/20 04:01:44;;;;;;;9.75;3.78;;;16.90;99.90;;;;;;5072610;28;20543;-83
2023/09/20 04:04:09;;;;;;;7.22;3.20;;;16.90;99.90;;;;;;5054442;28;20063;-83
2023/09/20 04:06:35;;;;;;;9.07;3.22;;;16.90;99.90;;;;;;5062637;28;20397;-83
2023/09/20 04:09:09;;;;;;;7.45;3.20;;;16.90;99.90;;;;;;5058347;28;20489;-83
2023/09/20 04:11:40;;;;;;;6.73;3.17;;;16.80;99.90;;;;;;5056228;28;20036;-83
2023/09/20 04:14:07;;;;;;;9.68;3.30;;;16.90;99.90;;;;;;5059246;28;20028;-83
2023/09/20 04:16:38;;;;;;;11.90;3.78;;;16.80;99.90;;;;;;5058014;28;20146;-83
2023/09/20 04:19:04;;;;;;;7.32;3.42;;;16.80;99.90;;;;;;5052180;28;20052;-83
2023/09/20 04:21:30;;;;;;;7.53;3.33;;;16.80;99.90;;;;;;5072613;28;20349;-83
2023/09/20 04:23:55;;;;;;;8.35;3.33;;;16.70;99.90;;;;;;5053195;28;20125;-82
2023/09/20 04:26:21;;;;;;;8.60;3.47;;;16.60;99.90;;;;;;5061498;28;20274;-83
2023/09/20 04:28:48;;;;;;;7.68;3.50;;;16.50;99.90;;;;;;5060420;28;20028;-83
2023/09/20 04:31:14;;;;;;;10.27;3.40;;;16.40;99.90;;;;;;5061530;28;20465;-83
2023/09/20 04:33:40;;;;;;;11.75;4.03;;;16.40;99.90;;;;;;5069168;28;20460;-83
2023/09/20 04:36:05;;;;;;;7.13;3.30;;;16.30;99.90;;;;;;5056866;28;20051;-82
2023/09/20 04:38:32;;;;;;;12.15;4.43;;;16.20;99.90;;;;;;5059826;28;20033;-83
2023/09/20 04:40:59;;;;;;;9.35;3.40;;;16.20;99.90;;;;;;5072846;28;20279;-83
2023/09/20 04:43:25;;;;;;;7.25;3.35;;;16.20;99.90;;;;;;5069812;28;20052;-83
2023/09/20 04:45:51;;;;;;;8.43;3.47;;;16.10;99.90;;;;;;5077611;28;20050;-83
2023/09/20 04:48:17;;;;;;;6.63;3.13;;;16.10;99.90;;;;;;5094376;28;20051;-83
2023/09/20 04:50:42;;;;;;;7.63;3.60;;;16.10;99.90;;;;;;5090949;28;20075;-83
2023/09/20 04:53:08;;;;;;;9.85;3.45;;;16.00;99.90;;;;;;5078661;28;20044;-83
2023/09/20 04:55:34;;;;;;;8.38;3.45;;;16.00;99.90;;;;;;5090308;28;20096;-83
2023/09/20 04:58:00;;;;;;;5.95;3.28;;;15.90;99.90;;;;;;5081804;28;20044;-83
2023/09/20 05:00:33;;;;;;;7.25;3.53;;;16.00;99.90;;;;;;5097150;28;20371;-83
2023/09/20 05:02:59;;;;;;;6.45;3.22;;;15.90;99.90;;;;;;5081149;28;20035;-83
2023/09/20 05:05:26;;;;;;;7.15;3.05;;;15.90;99.90;;;;;;5080672;28;20484;-83
2023/09/20 05:07:52;;;;;;;12.55;3.40;;;15.90;99.90;;;;;;5092179;28;20039;-83
2023/09/20 05:10:18;;;;;;;6.18;3.00;;;16.00;99.90;;;;;;5074260;28;20036;-83
2023/09/20 05:12:49;;;;;;;9.50;3.28;;;15.90;99.90;;;;;;5082376;28;20055;-83
2023/09/20 05:15:15;;;;;;;8.73;3.20;;;16.00;99.90;;;;;;5078576;28;20455;-83
2023/09/20 05:17:45;;;;;;;12.00;3.38;;;16.00;99.90;;;;;;5094287;28;20035;-83
2023/09/20 05:20:14;;;;;;;9.52;3.20;;;16.00;99.90;;;;;;5094573;28;20073;-83
2023/09/20 05:22:40;;;;;;;9.20;3.47;;;16.00;99.90;;;;;;5094718;28;20373;-83
2023/09/20 05:25:07;;;;;;;7.10;3.30;;;16.00;99.90;;;;;;5091941;28;20039;-83
2023/09/20 05:27:33;;;;;;;8.60;3.30;;;16.10;99.90;;;;;;5091341;28;20074;-82
2023/09/20 05:30:00;;;;;;;10.00;3.10;;;16.10;99.90;;;;;;5079816;28;20127;-83
2023/09/20 05:32:26;;;;;;;7.88;3.40;;;16.10;99.90;;;;;;5076868;28;20044;-83
2023/09/20 05:34:52;;;;;;;8.95;3.20;;;16.20;99.90;;;;;;5090550;28;20412;-84
2023/09/20 05:37:17;;;;;;;6.47;2.95;;;16.20;99.90;;;;;;5074042;28;20041;-83
2023/09/20 05:39:47;;;;;;;7.35;3.50;;;16.30;99.90;;;;;;5090823;28;20054;-83
2023/09/20 05:42:16;;;;;;;9.00;3.28;;;16.30;99.90;;;;;;5077500;28;20047;-83
2023/09/20 05:44:43;;;;;;;5.95;3.20;;;16.30;99.90;;;;;;5075686;28;20076;-83
2023/09/20 05:47:08;;;;;;;7.88;3.70;;;16.40;99.90;;;;;;5054373;28;20129;-82
2023/09/20 05:49:34;;;;;;;8.90;3.28;;;16.40;99.90;;;;;;5052747;28;20561;-83
2023/09/20 05:52:02;;;;;;;5.90;2.83;;;16.40;99.90;;;;;;5067309;28;20067;-83
2023/09/20 05:54:28;;;;;;;8.02;3.38;;;16.40;99.90;;;;;;5055392;28;20090;-82
2023/09/20 05:56:54;;;;;;;12.30;3.30;;;16.40;99.90;;;;;;5069834;28;20058;-83
2023/09/20 05:59:22;;;;;;;9.05;3.17;;;16.40;99.90;;;;;;5055388;28;20040;-83
2023/09/20 06:01:48;;;;;;;6.57;3.22;;;16.40;99.90;;;;;;5054955;28;20055;-83
2023/09/20 06:04:13;;;;;;;5.97;2.67;;;16.50;99.90;;;;;;5067581;28;20578;-83
2023/09/20 06:06:39;;;;;;;9.20;3.45;;;16.40;99.90;;;;;;5053810;28;20504;-83
2023/09/20 06:09:05;;;;;;;6.55;2.83;;;16.40;99.90;;;;;;5070414;28;20119;-83
2023/09/20 06:11:31;;;;;;;12.38;3.22;;;16.40;99.90;;;;;;5056906;28;20128;-83
2023/09/20 06:13:58;;;;;;;8.52;3.30;;;16.40;99.90;;;;;;5056927;28;20504;-83
2023/09/20 06:16:24;;;;;;;9.02;3.38;;;16.40;99.90;;;;;;5076633;28;20039;-84
2023/09/20 06:18:50;;;;;;;6.85;2.95;;;16.50;99.90;;;;;;5055933;28;20656;-83
2023/09/20 06:21:19;;;;;;;11.77;3.22;;;16.40;99.90;;;;;;5052223;28;20059;-83
2023/09/20 06:23:44;;;;;;;7.13;3.17;;;16.50;99.90;;;;;;5068895;28;20119;-83
2023/09/20 06:26:12;;;;;;;9.05;3.22;;;16.50;99.90;;;;;;5066703;28;20127;-82
2023/09/20 06:28:41;;;;;;;5.10;2.80;;;16.40;99.90;;;;;;5066823;28;20189;-84
2023/09/20 06:31:15;;;;;;;9.07;3.10;;;16.40;99.90;;;;;;5067965;28;20524;-83
2023/09/20 06:33:44;;;;;;;6.05;2.90;;;16.40;99.90;;;;;;5058541;28;20038;-83
2023/09/20 06:36:16;;;;;;;5.50;2.65;;;16.40;99.90;;;;;;5054697;28;20391;-83
2023/09/20 06:38:42;;;;;;;8.50;2.85;;;16.40;99.90;;;;;;5071258;28;20036;-84
2023/09/20 06:41:08;;;;;;;6.80;2.95;;;16.40;99.90;;;;;;5053142;28;20040;-83
2023/09/20 06:43:36;;;;;;;7.07;2.80;;;16.50;99.90;;;;;;5059783;28;20067;-83
2023/09/20 06:46:03;;;;;;;6.70;2.70;;;16.50;99.90;;;;;;5082791;28;20492;-83
2023/09/20 06:48:29;;;;;;;7.55;3.63;;;16.50;99.90;;;;;;5088836;28;20054;-83
2023/09/20 06:50:55;;;;;;;6.93;2.75;;;16.50;99.90;;;;;;5067622;28;20032;-83
2023/09/20 06:53:25;;;;;;;6.60;2.53;;;16.60;99.90;;;;;;5088937;28;20028;-83
2023/09/20 06:55:51;;;;;;;8.15;3.08;;;16.60;99.90;;;;;;5078842;28;20504;-83
2023/09/20 06:58:17;;;;;;;7.22;3.00;;;16.60;99.90;;;;;;5078408;28;20581;-83
2023/09/20 07:00:42;;;;;;;5.25;2.63;;;16.60;99.90;;;;;;5073188;28;20039;-83
2023/09/20 07:03:09;;;;;;;6.93;2.83;;;16.70;99.90;;;;;;5089011;28;20073;-83
2023/09/20 07:05:35;;;;;;;12.95;2.97;;;16.70;99.90;;;;;;5076492;28;20126;-84
2023/09/20 07:08:01;;;;;;;6.47;3.30;;;16.70;99.90;;;;;;5078310;28;20342;-83
2023/09/20 07:10:34;;;;;;;7.63;2.58;;;16.70;99.90;;;;;;5087282;28;20094;-83
2023/09/20 07:13:00;;;;;;;5.32;2.50;;;16.70;99.90;;;;;;5084803;28;20493;-83
2023/09/20 07:15:28;;;;;;;6.63;2.90;;;16.70;99.90;;;;;;5074585;28;20310;-83
2023/09/20 07:18:00;;;;;;;5.63;2.70;;;16.80;99.90;;;;;;5069807;28;20039;-83
2023/09/20 07:20:29;;;;;;;7.47;2.67;;;16.90;99.90;;;;;;5073143;28;20130;-83
2023/09/20 07:22:55;;;;;;;6.57;2.75;;;16.90;99.90;;;;;;5089001;28;20071;-83
2023/09/20 07:25:27;;;;;;;7.75;2.80;;;16.90;99.90;;;;;;5077119;28;20039;-83
2023/09/20 07:27:55;;;;;;;7.60;2.88;;;17.00;99.90;;;;;;5074949;28;20043;-83
2023/09/20 07:30:22;;;;;;;7.57;3.30;;;17.00;99.90;;;;;;5076396;28;20472;-83
2023/09/20 07:32:55;;;;;;;4.90;2.50;;;17.10;99.90;;;;;;5073793;28;20109;-84
2023/09/20 07:35:26;;;;;;;7.55;2.90;;;17.20;99.90;;;;;;5066052;28;20865;-84
2023/09/20 07:37:57;;;;;;;12.13;3.53;;;17.30;99.90;;;;;;5091193;28;20042;-83
2023/09/20 07:40:41;;;;;;;7.40;2.85;;;17.40;99.90;;;;;;5085244;28;20591;-84
2023/09/20 07:43:07;;;;;;;7.55;3.03;;;17.60;99.90;;;;;;5075260;28;20046;-83
2023/09/20 07:45:39;;;;;;;4.63;2.50;;;17.70;99.90;;;;;;5055472;28;20056;-84
2023/09/20 07:48:11;;;;;;;6.68;3.05;;;17.80;99.90;;;;;;5055268;28;20577;-83
2023/09/20 07:50:40;;;;;;;5.90;2.55;;;17.80;99.90;;;;;;5061051;28;20037;-83
2023/09/20 07:53:10;;;;;;;8.93;3.03;;;17.80;99.90;;;;;;5068660;28;20098;-83
2023/09/20 07:55:41;;;;;;;8.65;3.25;;;17.80;99.90;;;;;;5066973;28;20047;-83
2023/09/20 07:58:08;;;;;;;5.47;3.08;;;17.70;99.90;;;;;;5061149;28;20047;-84
2023/09/20 08:00:39;;;;;;;5.35;2.88;;;17.60;99.90;;;;;;5057280;28;20043;-83
2023/09/20 08:03:05;;;;;;;8.40;3.10;;;17.60;99.90;;;;;;5055905;28;20039;-83
2023/09/20 08:05:33;;;;;;;6.95;3.03;;;17.60;99.90;;;;;;5057618;28;20388;-83
2023/09/20 08:07:59;;;;;;;7.90;2.60;;;17.60;99.90;;;;;;5058230;28;20041;-83
2023/09/20 08:10:24;;;;;;;7.88;3.67;;;17.60;99.90;;;;;;5067846;28;20033;-83
2023/09/20 08:12:51;;;;;;;7.60;2.80;;;17.60;99.90;;;;;;5054089;28;20090;-83
2023/09/20 08:15:16;;;;;;;5.55;2.70;;;17.60;99.90;;;;;;5054361;28;20040;-83
2023/09/20 08:20:27;;;;;;;7.18;2.97;;;17.70;99.90;;;;;;5072030;28;20044;-83
2023/09/20 09:01:37;;;;;;;9.55;2.83;;;18.70;99.90;;;;;;5067183;28;20079;-83
2023/09/20 09:04:06;;;;;;;6.97;3.10;;;18.80;99.90;;;;;;5071949;28;20044;-83
2023/09/20 09:06:32;;;;;;;5.70;3.13;;;18.80;99.90;;;;;;5052640;28;20105;-83
2023/09/20 09:08:58;;;;;;;4.05;2.95;;;18.90;99.90;;;;;;5066106;28;20052;-83
2023/09/20 09:11:25;;;;;;;5.30;3.00;;;18.90;99.90;;;;;;5063568;28;20048;-83
2023/09/20 09:13:52;;;;;;;4.13;2.70;;;18.90;99.90;;;;;;5072808;28;20346;-83
2023/09/20 09:16:21;;;;;;;7.05;3.22;;;18.90;99.90;;;;;;5056856;28;20046;-84
2023/09/20 09:18:48;;;;;;;4.30;2.92;;;18.80;99.90;;;;;;5068081;28;20050;-83
2023/09/20 09:21:14;;;;;;;6.13;2.80;;;18.90;99.90;;;;;;5059936;28;20044;-84
2023/09/20 09:23:45;;;;;;;6.15;3.10;;;18.90;99.90;;;;;;5061341;28;20089;-83
2023/09/20 09:26:12;;;;;;;6.57;2.80;;;18.90;99.90;;;;;;5067537;28;20091;-84
2023/09/20 09:28:40;;;;;;;8.13;3.00;;;19.00;99.90;;;;;;5065597;28;20553;-83
2023/09/20 09:31:08;;;;;;;5.15;3.05;;;19.10;99.90;;;;;;5054900;28;20405;-83
2023/09/20 09:33:35;;;;;;;5.05;2.90;;;19.00;99.90;;;;;;5069846;28;20090;-84
2023/09/20 09:36:05;;;;;;;6.95;2.67;;;19.00;99.90;;;;;;5049756;28;20550;-84
2023/09/20 09:38:34;;;;;;;6.35;2.97;;;19.20;99.90;;;;;;5055499;28;20445;-83
2023/09/20 09:41:01;;;;;;;7.20;3.20;;;19.10;99.90;;;;;;5069901;28;20512;-83
2023/09/20 09:43:31;;;;;;;6.80;3.03;;;19.20;99.90;;;;;;5055925;28;20085;-84
2023/09/20 09:46:08;;;;;;;4.63;3.05;;;19.10;99.90;;;;;;5073160;28;20356;-84
2023/09/20 09:48:37;;;;;;;7.95;3.08;;;19.10;99.90;;;;;;5095519;28;20046;-83
2023/09/20 09:51:05;;;;;;;6.80;2.95;;;19.00;99.90;;;;;;5087462;28;20048;-84
2023/09/20 09:53:34;;;;;;;6.53;3.30;;;19.20;99.90;;;;;;5073513;28;20058;-83
2023/09/20 09:56:03;;;;;;;4.13;2.53;;;19.50;99.90;;;;;;5080002;28;20023;-83
2023/09/20 09:58:29;;;;;;;4.20;2.85;;;19.80;99.90;;;;;;5076669;28;20042;-83
2023/09/20 10:00:57;;;;;;;6.45;3.20;;;19.90;99.90;;;;;;5087825;28;20415;-83
2023/09/20 10:03:34;;;;;;;6.03;2.72;;;20.00;99.90;;;;;;5078909;28;20035;-84
2023/09/20 10:06:08;;;;;;;6.20;2.70;;;20.00;99.90;;;;;;5088582;28;20068;-83
2023/09/20 10:08:38;;;;;;;5.47;2.90;;;20.00;99.90;;;;;;5086428;28;20184;-83
2023/09/20 10:11:05;;;;;;;5.00;2.60;;;20.40;99.90;;;;;;5087837;27;20343;-83
2023/09/20 10:13:32;;;;;;;6.15;2.85;;;20.60;99.90;;;;;;5079417;28;20269;-84
2023/09/20 10:16:00;;;;;;;4.93;2.38;;;20.40;99.90;;;;;;5083833;28;20028;-84
2023/09/20 10:18:52;;;;;;;4.22;2.33;;;20.40;99.90;;;;;;5072522;28;20032;-84
2023/09/20 10:21:24;;;;;;;3.15;2.30;;;20.40;99.90;;;;;;5074098;28;20056;-83
2023/09/20 10:24:00;;;;;;;8.65;2.40;;;20.20;99.90;;;;;;5088403;28;20055;-84
2023/09/20 10:26:27;;;;;;;3.63;2.20;;;20.20;99.90;;;;;;5079174;28;20479;-84
2023/09/20 10:29:28;;;;;;;2.72;2.08;;;20.10;99.90;;;;;;5073363;28;20306;-83
2023/09/20 10:32:17;;;;;;;3.70;2.25;;;20.10;99.90;;;;;;5071950;28;20527;-84
2023/09/20 10:35:20;;;;;;;3.25;2.17;;;20.00;99.90;;;;;;5075656;28;20081;-83
2023/09/20 10:38:21;;;;;;;3.55;2.55;;;20.10;99.90;;;;;;5077094;28;20024;-83
2023/09/20 10:40:51;;;;;;;4.15;2.00;;;20.10;99.90;;;;;;5088819;28;20036;-84
2023/09/20 10:43:25;;;;;;;3.38;1.92;;;20.00;99.90;;;;;;5074829;28;20035;-84
2023/09/20 10:45:54;;;;;;;3.97;2.40;;;20.00;99.90;;;;;;5074521;28;20674;-83
2023/09/20 10:48:29;;;;;;;3.53;2.42;;;20.10;99.90;;;;;;5088899;28;20838;-84
2023/09/20 10:50:57;;;;;;;;;;;20.20;99.90;;;;;;5074870;28;20405;-84
2023/09/20 10:54:03;;;;;;;6.05;2.53;;;20.20;99.90;;;;;;5075689;28;19920;-83
2023/09/20 10:56:53;;;;;;;2.80;2.13;;;20.40;99.90;;;;;;5072854;28;20378;-84
2023/09/20 10:59:26;;;;;;;4.10;2.47;;;20.50;99.90;;;;;;5069661;28;20047;-83
2023/09/20 11:01:53;;;;;;;4.22;2.05;;;20.30;99.90;;;;;;5076550;28;20063;-84
2023/09/20 11:04:19;;;;;;;4.95;2.00;;;20.30;99.90;;;;;;5089130;28;20058;-83
2023/09/20 11:06:49;;;;;;;4.03;1.80;;;20.20;99.90;;;;;;5073750;28;20040;-83
2023/09/20 11:09:15;;;;;;;3.92;1.90;;;20.10;99.90;;;;;;5087019;28;20078;-84
2023/09/20 11:11:42;;;;;;;4.20;1.90;;;20.10;99.90;;;;;;5074537;28;20039;-84
2023/09/20 11:14:08;;;;;;;5.05;1.75;;;20.00;99.90;;;;;;5072918;28;20401;-84
2023/09/20 11:16:36;;;;;;;4.72;2.05;;;19.90;99.90;;;;;;5073226;28;20119;-84
2023/09/20 11:19:03;;;;;;;3.03;2.00;;;19.90;99.90;;;;;;5088948;28;20039;-83
2023/09/20 11:21:28;;;;;;;5.18;2.05;;;19.80;99.90;;;;;;5088012;28;20531;-84
2023/09/20 11:23:54;;;;;;;6.30;2.47;;;19.90;99.90;;;;;;5091831;28;20258;-83
2023/09/20 11:26:27;;;;;;;3.30;1.80;;;20.10;99.90;;;;;;5072824;28;20135;-83
2023/09/20 11:28:53;;;;;;;5.30;2.08;;;20.10;99.90;;;;;;5086842;28;20040;-84
2023/09/20 11:31:28;;;;;;;5.05;2.15;;;20.10;99.90;;;;;;5089336;28;20032;-84
2023/09/20 11:34:03;;;;;;;2.95;1.80;;;20.30;99.90;;;;;;5074319;28;20312;-84
2023/09/20 11:36:37;;;;;;;5.30;2.33;;;20.70;99.90;;;;;;5077120;28;20322;-83
2023/09/20 11:39:03;;;;;;;3.45;1.60;;;20.80;99.90;;;;;;5082764;28;20074;-84
2023/09/20 11:41:30;;;;;;;2.78;1.83;;;20.90;99.90;;;;;;5096666;28;20149;-84
2023/09/20 11:44:00;;;;;;;7.20;1.65;;;20.90;99.90;;;;;;5076516;28;20174;-84
2023/09/20 11:46:33;;;;;;;4.18;2.00;;;20.70;99.90;;;;;;5059035;28;20039;-84
2023/09/20 11:49:00;;;;;;;4.97;1.85;;;20.80;99.90;;;;;;5072314;28;20106;-84
2023/09/20 11:51:28;;;;;;;6.63;2.20;;;20.70;99.90;;;;;;5056158;28;20497;-84
2023/09/20 11:53:55;;;;;;;3.80;1.80;;;20.80;99.90;;;;;;5062215;28;20040;-84
2023/09/20 11:56:26;;;;;;;3.88;1.92;;;20.80;99.90;;;;;;5068549;28;20516;-84
2023/09/20 11:58:53;;;;;;;3.70;1.83;;;20.90;99.90;;;;;;5072369;28;20456;-84
2023/09/20 12:01:33;;;;;;;2.75;1.85;;;21.10;99.90;;;;;;5057185;28;20044;-84
2023/09/20 12:03:59;;;;;;;4.00;2.10;;;21.30;99.90;;;;;;5069322;28;20397;-84
2023/09/20 12:06:25;;;;;;;3.90;2.08;;;21.40;99.90;;;;;;5060500;28;20070;-84
2023/09/20 12:08:53;;;;;;;4.47;2.22;;;21.40;99.90;;;;;;5071167;28;20044;-84
2023/09/20 12:11:19;;;;;;;3.78;2.08;;;21.40;99.90;;;;;;5054038;28;20040;-84
2023/09/20 12:13:46;;;;;;;4.72;2.00;;;21.10;99.90;;;;;;5064070;28;20036;-84
2023/09/20 12:16:14;;;;;;;3.42;2.00;;;21.10;99.90;;;;;;5057667;28;20409;-84
2023/09/20 12:18:41;;;;;;;4.03;2.20;;;21.40;99.90;;;;;;5057729;28;20036;-84
2023/09/20 12:21:08;;;;;;;3.45;1.90;;;21.50;99.90;;;;;;5053667;28;20477;-84
2023/09/20 12:23:35;;;;;;;3.03;2.10;;;21.90;99.90;;;;;;5061646;28;20036;-84
2023/09/20 12:26:03;;;;;;;3.63;2.13;;;22.10;99.90;;;;;;5059629;28;20040;-84
2023/09/20 12:28:29;;;;;;;4.45;2.17;;;22.10;99.90;;;;;;5069609;28;20047;-85
2023/09/20 12:30:56;;;;;;;5.38;2.47;;;22.10;99.90;;;;;;5059091;28;20086;-84
2023/09/20 12:33:24;;;;;;;4.28;2.15;;;22.10;99.90;;;;;;5068099;28;20040;-84
2023/09/20 12:35:52;;;;;;;5.43;2.35;;;22.10;99.90;;;;;;5056603;28;20039;-85
2023/09/20 12:38:18;;;;;;;7.00;2.70;;;22.00;99.90;;;;;;5057185;28;20028;-85
2023/09/20 12:40:43;;;;;;;6.78;2.55;;;21.70;99.90;;;;;;5058161;28;20361;-84
2023/09/20 12:43:09;;;;;;;6.38;3.47;;;21.80;99.90;;;;;;5053553;28;20196;-84
2023/09/20 12:45:35;;;;;;;9.05;2.70;;;21.60;99.90;;;;;;5069760;28;20049;-84
2023/09/20 12:48:01;;;;;;;4.65;2.40;;;21.60;99.90;;;;;;5066898;28;20777;-84
2023/09/20 12:50:33;;;;;;;6.05;2.60;;;22.10;99.90;;;;;;5053072;28;20037;-84
2023/09/20 12:52:59;;;;;;;3.78;2.20;;;22.10;99.90;;;;;;5060633;28;20040;-85
2023/09/20 12:55:25;;;;;;;3.80;2.20;;;22.60;99.90;;;;;;5052221;28;20039;-84
2023/09/20 12:57:51;;;;;;;5.53;2.78;;;23.10;99.90;;;;;;5054468;28;20201;-84
2023/09/20 13:00:18;;;;;;;4.95;2.53;;;24.20;99.90;;;;;;5068371;28;20260;-85
2023/09/20 13:02:45;;;;;;;4.28;2.45;;;24.20;99.90;;;;;;5057726;28;20538;-84
2023/09/20 13:05:14;;;;;;;4.30;2.40;;;24.50;99.90;;;;;;5057013;28;20040;-85
2023/09/20 13:07:40;;;;;;;6.25;2.75;;;23.80;99.90;;;;;;5052494;28;20040;-85
2023/09/20 13:10:13;;;;;;;6.05;2.35;;;23.10;99.90;;;;;;5071005;28;20138;-85
2023/09/20 13:12:41;;;;;;;6.30;2.55;;;22.90;99.90;;;;;;5073207;28;20046;-85
2023/09/20 13:15:14;;;;;;;5.50;2.60;;;22.70;99.90;;;;;;5050410;28;20068;-84
2023/09/20 13:17:44;;;;;;;5.20;2.50;;;22.50;99.90;;;;;;5070981;28;20119;-84
2023/09/20 13:20:14;;;;;;;4.97;2.75;;;22.80;99.90;;;;;;5070429;28;20047;-84
2023/09/20 13:22:42;;;;;;;5.57;2.55;;;22.90;99.90;;;;;;5070303;28;20404;-84
2023/09/20 13:25:14;;;;;;;3.70;2.47;;;23.10;99.90;;;;;;5070663;28;20040;-84
2023/09/20 13:27:41;;;;;;;6.93;2.75;;;23.30;99.90;;;;;;5055611;28;20142;-84
2023/09/20 13:30:10;;;;;;;5.65;2.90;;;23.40;99.90;;;;;;5056080;28;20029;-85
2023/09/20 13:32:36;;;;;;;5.07;2.60;;;23.50;99.90;;;;;;5053772;28;20052;-85